Time;durP1;ratioP1;P1;durP2;ratioP2;P2;SDS_P1;SDS_P2;PMS_P1;PMS_P2;Temp;Humidity;BMP_temperature;BMP_pressure;BME280_temperature;BME280_humidity;BME280_pressure;Samples;Min_cycle;Max_cycle;Signal;HPM_P1;HPM_P2
2023/05/01 00:00:21;;;;;;;5.77;2.60;;;;;;;11.25;69.76;101668.75;5072313;28;20099;-86
2023/05/01 00:02:46;;;;;;;5.70;2.93;;;;;;;11.19;70.15;101650.56;5072018;28;20028;-86
2023/05/01 00:05:11;;;;;;;5.17;2.87;;;;;;;11.20;70.28;101660.09;5071770;28;20067;-85
2023/05/01 00:07:37;;;;;;;5.53;3.10;;;;;;;11.22;70.11;101650.56;5071971;28;20025;-86
2023/05/01 00:10:02;;;;;;;3.50;2.70;;;;;;;11.21;69.82;101646.22;5072518;28;20021;-86
2023/05/01 00:12:28;;;;;;;4.03;2.50;;;;;;;11.23;70.36;101644.50;5071618;28;20024;-86
2023/05/01 00:14:53;;;;;;;3.93;2.40;;;;;;;11.21;70.45;101642.75;5072170;28;20107;-86
2023/05/01 00:17:22;;;;;;;3.70;2.63;;;;;;;11.21;70.90;101633.25;5072423;28;20511;-86
2023/05/01 00:19:53;;;;;;;6.00;3.40;;;;;;;11.16;70.26;101640.19;5071630;28;20070;-86
2023/05/01 00:22:19;;;;;;;5.80;3.40;;;;;;;11.13;70.49;101632.44;5073066;28;20024;-86
2023/05/01 00:24:53;;;;;;;4.33;2.67;;;;;;;11.16;70.04;101635.00;5072223;28;20016;-85
2023/05/01 00:27:18;;;;;;;4.45;2.75;;;;;;;11.15;70.60;101630.66;5071518;28;20033;-86
2023/05/01 00:29:44;;;;;;;4.33;2.80;;;;;;;11.16;70.22;101626.34;5071642;28;20028;-86
2023/05/01 00:32:09;;;;;;;4.60;2.60;;;;;;;11.11;70.75;101618.56;5071590;28;20481;-85
2023/05/01 00:34:35;;;;;;;6.30;3.00;;;;;;;11.13;70.76;101624.63;5070839;28;20025;-86
2023/05/01 00:37:00;;;;;;;3.63;2.40;;;;;;;11.12;70.40;101617.72;5071628;28;20028;-86
2023/05/01 00:39:25;;;;;;;3.80;2.43;;;;;;;11.15;70.57;101620.25;5071165;28;20036;-85
2023/05/01 00:41:51;;;;;;;2.60;2.20;;;;;;;11.12;70.88;101613.34;5071725;28;20033;-86
2023/05/01 00:44:16;;;;;;;2.73;2.17;;;;;;;11.15;70.81;101615.06;5072142;28;20071;-86
2023/05/01 00:46:42;;;;;;;3.43;2.30;;;;;;;11.15;70.84;101614.22;5070975;28;20028;-86
2023/05/01 00:49:08;;;;;;;6.05;2.80;;;;;;;11.03;70.54;101597.81;5071932;28;20395;-86
2023/05/01 00:51:34;;;;;;;6.33;3.07;;;;;;;11.08;70.89;101605.59;5074602;28;20020;-86
2023/05/01 00:54:00;;;;;;;4.80;2.92;;;;;;;11.09;70.46;101607.31;5074656;28;20033;-86
2023/05/01 00:56:25;;;;;;;2.83;2.30;;;;;;;11.10;70.48;101601.25;5075071;28;20060;-86
2023/05/01 00:58:53;;;;;;;2.70;2.10;;;;;;;11.11;70.42;101597.78;5075158;28;20036;-86
2023/05/01 01:01:22;;;;;;;3.35;2.17;;;;;;;11.07;70.76;101596.94;5074406;28;20040;-86
2023/05/01 01:03:49;;;;;;;2.42;2.20;;;;;;;11.08;70.88;101583.09;5075274;28;20077;-86
2023/05/01 01:06:22;;;;;;;2.45;2.00;;;;;;;11.09;70.21;101591.75;5075290;28;20025;-86
2023/05/01 01:09:20;;;;;;;2.72;2.20;;;;;;;11.09;70.70;101581.34;5074753;28;20054;-86
2023/05/01 01:12:02;;;;;;;2.83;2.00;;;;;;;11.08;70.86;101582.22;5075312;28;20036;-86
2023/05/01 01:14:35;;;;;;;2.30;1.90;;;;;;;11.08;70.91;101579.63;5060193;28;20028;-86
2023/05/01 01:17:12;;;;;;;2.50;2.10;;;;;;;11.06;71.47;101581.34;5074802;28;20078;-86
2023/05/01 01:20:18;;;;;;;2.80;2.40;;;;;;;11.02;71.36;101579.66;5074726;28;20465;-86
2023/05/01 01:22:49;;;;;;;2.15;1.95;;;;;;;11.00;70.92;101569.25;5074415;28;20055;-86
2023/05/01 01:25:21;;;;;;;3.00;2.13;;;;;;;10.97;72.13;101571.91;5074328;28;20120;-86
2023/05/01 01:28:23;;;;;;;6.43;2.90;;;;;;;10.93;71.91;101562.38;5074805;28;20044;-86
2023/05/01 01:31:08;;;;;;;5.05;2.80;;;;;;;10.88;72.21;101565.00;5073759;28;20047;-86
2023/05/01 01:33:48;;;;;;;3.13;2.42;;;;;;;10.85;72.05;101554.63;5074520;28;20055;-86
2023/05/01 01:36:18;;;;;;;5.45;2.92;;;;;;;10.83;72.27;101553.78;5073811;28;20020;-86
2023/05/01 01:38:57;;;;;;;5.25;3.00;;;;;;;10.81;72.89;101550.31;5074486;28;20025;-86
2023/05/01 01:41:29;;;;;;;4.13;2.70;;;;;;;10.79;72.90;101544.28;5074574;28;20024;-86
2023/05/01 01:44:01;;;;;;;8.07;3.60;;;;;;;10.73;72.68;101536.50;5074069;28;20123;-87
2023/05/01 01:46:27;;;;;;;5.70;3.30;;;;;;;10.70;73.78;101536.50;5074414;28;20024;-85
2023/05/01 01:48:55;;;;;;;8.38;3.83;;;;;;;10.64;73.67;101530.50;5074809;28;20426;-85
2023/05/01 01:51:22;;;;;;;8.18;3.47;;;;;;;10.61;73.49;101527.06;5073154;28;20472;-86
2023/05/01 01:53:52;;;;;;;5.05;3.20;;;;;;;10.57;73.75;101525.34;5074220;28;20374;-86
2023/05/01 01:56:20;;;;;;;5.75;3.50;;;;;;;10.56;73.71;101518.41;5074137;28;20040;-86
2023/05/01 01:58:47;;;;;;;5.05;3.17;;;;;;;10.55;73.40;101514.97;5073110;28;20081;-86
2023/05/01 02:01:14;;;;;;;5.00;3.40;;;;;;;10.54;74.22;101521.03;5074128;28;20408;-86
2023/05/01 02:03:40;;;;;;;5.80;3.05;;;;;;;10.54;73.60;101515.84;5073046;28;20025;-85
2023/05/01 02:06:07;;;;;;;3.60;2.53;;;;;;;10.57;73.77;101515.84;5073902;28;20074;-86
2023/05/01 02:08:35;;;;;;;6.93;3.50;;;;;;;10.50;73.83;101515.00;5073592;28;20033;-86
2023/05/01 02:11:02;;;;;;;7.93;3.70;;;;;;;10.47;73.81;101508.97;5073197;28;20031;-86
2023/05/01 02:13:28;;;;;;;6.32;3.47;;;;;;;10.47;73.57;101504.63;5073839;28;20032;-86
2023/05/01 02:16:01;;;;;;;4.82;3.20;;;;;;;10.49;73.61;101510.66;5073798;28;20081;-86
2023/05/01 02:18:28;;;;;;;6.45;3.78;;;;;;;10.45;73.67;101510.69;5072805;28;20503;-86
2023/05/01 02:20:55;;;;;;;6.95;3.85;;;;;;;10.45;73.91;101511.53;5073629;28;20028;-86
2023/05/01 02:23:22;;;;;;;6.90;3.42;;;;;;;10.43;73.93;101507.22;5073521;28;20024;-85
2023/05/01 02:25:50;;;;;;;7.18;3.60;;;;;;;10.40;73.96;101500.34;5072440;28;20052;-86
2023/05/01 02:28:21;;;;;;;6.90;4.10;;;;;;;10.39;74.08;101498.59;5073575;28;20029;-86
2023/05/01 02:30:46;;;;;;;6.30;3.80;;;;;;;10.40;74.55;101491.66;5073216;28;20476;-86
2023/05/01 02:33:12;;;;;;;6.80;3.83;;;;;;;10.36;74.74;101494.25;5072585;28;20020;-86
2023/05/01 02:35:43;;;;;;;8.47;4.13;;;;;;;10.32;74.24;101482.16;5073256;28;20134;-86
2023/05/01 02:38:10;;;;;;;10.43;4.25;;;;;;;10.27;74.75;101478.72;5073381;28;20021;-86
2023/05/01 02:40:38;;;;;;;6.68;3.90;;;;;;;10.30;75.06;101481.31;5072437;28;20025;-86
2023/05/01 02:43:09;;;;;;;7.93;4.18;;;;;;;10.27;75.01;101476.13;5073468;28;20029;-86
2023/05/01 02:45:40;;;;;;;7.75;4.45;;;;;;;10.21;75.26;101473.56;5073122;28;20024;-86
2023/05/01 02:48:08;;;;;;;7.55;4.30;;;;;;;10.17;75.63;101464.94;5072360;28;20032;-86
2023/05/01 02:50:39;;;;;;;9.02;4.35;;;;;;;10.18;75.60;101473.56;5072887;28;20086;-86
2023/05/01 02:53:05;;;;;;;10.70;4.55;;;;;;;10.14;75.73;101462.34;5072435;28;20029;-86
2023/05/01 02:55:31;;;;;;;10.23;4.35;;;;;;;10.16;75.61;101459.72;5072500;28;20027;-85
2023/05/01 02:58:02;;;;;;;9.53;4.63;;;;;;;10.15;75.42;101455.41;5073023;28;20376;-86
2023/05/01 03:00:28;;;;;;;11.07;4.60;;;;;;;10.11;75.77;101453.72;5071937;28;20527;-86
2023/05/01 03:02:54;;;;;;;9.40;4.55;;;;;;;10.07;75.60;101446.78;5072848;28;20032;-86
2023/05/01 03:05:19;;;;;;;9.50;4.50;;;;;;;10.09;75.92;101450.25;5072944;28;20020;-85
2023/05/01 03:07:46;;;;;;;9.23;4.60;;;;;;;10.04;75.74;101450.28;5072535;28;20495;-86
2023/05/01 03:10:12;;;;;;;6.90;4.00;;;;;;;10.09;75.78;101448.50;5073148;28;20016;-86
2023/05/01 03:12:37;;;;;;;9.18;4.40;;;;;;;10.08;75.91;101443.34;5072307;28;20099;-86
2023/05/01 03:15:03;;;;;;;9.20;4.30;;;;;;;10.09;75.56;101450.25;5072033;28;20448;-86
2023/05/01 03:17:28;;;;;;;9.87;4.43;;;;;;;10.08;75.83;101444.19;5072750;28;20020;-86
2023/05/01 03:19:53;;;;;;;11.33;4.33;;;;;;;10.05;75.62;101439.03;5072834;28;20039;-86
2023/05/01 03:22:19;;;;;;;7.30;4.20;;;;;;;10.07;75.60;101439.91;5072075;28;20021;-85
2023/05/01 03:24:48;;;;;;;8.47;4.13;;;;;;;10.07;76.33;101437.31;5072477;28;20138;-86
2023/05/01 03:27:13;;;;;;;7.28;4.07;;;;;;;9.99;76.34;101418.28;5072355;28;20053;-86
2023/05/01 03:29:39;;;;;;;10.07;4.50;;;;;;;10.01;75.89;101426.94;5071273;28;20031;-86
2023/05/01 03:32:05;;;;;;;8.80;4.53;;;;;;;10.01;75.99;101429.53;5072572;28;20421;-86
2023/05/01 03:34:30;;;;;;;7.50;4.57;;;;;;;10.02;75.91;101424.31;5072464;28;20021;-86
2023/05/01 03:36:56;;;;;;;7.33;4.17;;;;;;;10.02;76.05;101418.28;5072010;28;20078;-86
2023/05/01 03:39:21;;;;;;;9.27;4.53;;;;;;;10.01;76.31;101425.22;5072388;28;20384;-85
2023/05/01 03:41:46;;;;;;;7.73;4.40;;;;;;;10.01;76.42;101421.75;5072245;28;20385;-86
2023/05/01 03:44:15;;;;;;;11.10;4.63;;;;;;;9.99;76.23;101419.19;5071926;28;20074;-86
2023/05/01 03:46:40;;;;;;;9.05;4.43;;;;;;;10.01;76.48;101425.22;5071917;28;20028;-86
2023/05/01 03:49:06;;;;;;;12.47;4.70;;;;;;;9.97;76.54;101413.13;5072424;28;20025;-86
2023/05/01 03:51:31;;;;;;;9.67;4.77;;;;;;;9.98;76.51;101412.25;5071557;28;20043;-86
2023/05/01 03:53:57;;;;;;;8.23;4.23;;;;;;;10.00;76.80;101410.53;5072774;28;20480;-86
2023/05/01 03:56:24;;;;;;;10.10;4.77;;;;;;;9.98;76.91;101412.25;5071397;28;20024;-86
2023/05/01 03:58:50;;;;;;;;;;;;;;;9.98;76.80;101409.66;5072602;28;20074;-86
2023/05/01 04:01:15;;;;;;;9.87;4.60;;;;;;;9.97;76.47;101407.06;5072553;28;19912;-86
2023/05/01 04:03:40;;;;;;;9.30;4.47;;;;;;;9.97;77.06;101407.06;5071620;28;20472;-86
2023/05/01 04:06:06;;;;;;;10.00;4.70;;;;;;;9.94;77.04;101407.94;5072532;28;20380;-86
2023/05/01 04:08:31;;;;;;;9.10;4.73;;;;;;;9.92;76.94;101401.03;5072082;28;20055;-86
2023/05/01 04:10:56;;;;;;;8.70;4.30;;;;;;;9.91;77.41;101396.72;5071868;28;20111;-86
2023/05/01 04:13:21;;;;;;;10.03;4.57;;;;;;;9.91;77.49;101402.75;5072101;28;20041;-86
2023/05/01 04:15:47;;;;;;;10.10;5.37;;;;;;;9.84;77.39;101393.28;5072267;28;20028;-86
2023/05/01 04:18:13;;;;;;;11.67;5.07;;;;;;;9.79;77.75;101387.28;5071401;28;20071;-86
2023/05/01 04:20:39;;;;;;;11.23;5.00;;;;;;;9.81;77.80;101393.28;5072230;28;20090;-86
2023/05/01 04:23:04;;;;;;;10.25;4.80;;;;;;;9.77;77.72;101392.44;5072483;28;20095;-86
2023/05/01 04:25:29;;;;;;;8.67;5.10;;;;;;;9.74;77.37;101388.13;5072267;28;20466;-86
2023/05/01 04:27:56;;;;;;;6.60;4.00;;;;;;;9.84;77.37;101401.06;5075853;28;20032;-86
2023/05/01 04:30:21;;;;;;;7.53;4.10;;;;;;;9.82;77.56;101393.31;5075870;28;20534;-86
2023/05/01 04:32:46;;;;;;;8.43;4.23;;;;;;;9.86;77.52;101396.75;5075320;28;20032;-85
2023/05/01 04:35:12;;;;;;;9.77;4.97;;;;;;;9.84;77.35;101401.06;5075570;28;20031;-86
2023/05/01 04:37:37;;;;;;;8.67;4.50;;;;;;;9.86;76.95;101401.94;5075404;28;20508;-83
2023/05/01 04:40:03;;;;;;;5.83;3.70;;;;;;;9.88;76.79;101401.06;5075020;28;20017;-86
2023/05/01 04:42:32;;;;;;;6.27;3.30;;;;;;;9.96;76.98;101413.16;5075389;28;20374;-86
2023/05/01 04:45:00;;;;;;;4.00;2.70;;;;;;;10.02;76.98;101413.94;5075589;28;20389;-84
2023/05/01 04:47:26;;;;;;;2.97;2.40;;;;;;;10.05;76.93;101408.75;5075398;28;20500;-93
2023/05/01 04:49:51;;;;;;;2.37;2.17;;;;;;;10.09;77.21;101408.75;5077055;28;20021;-93
2023/05/01 04:52:16;;;;;;;2.40;2.20;;;;;;;10.12;76.96;101406.16;5076482;28;20047;-93
2023/05/01 04:54:42;;;;;;;3.03;2.27;;;;;;;10.17;77.02;101412.19;5076635;28;20146;-94
2023/05/01 04:57:07;;;;;;;2.47;2.20;;;;;;;10.16;78.85;101398.34;5076995;28;20036;-93
2023/05/01 04:59:32;;;;;;;5.23;2.83;;;;;;;10.15;78.29;101404.41;5076614;28;20504;-93
2023/05/01 05:01:58;;;;;;;3.07;2.40;;;;;;;10.14;77.65;101400.09;5077128;28;20472;-93
2023/05/01 05:04:26;;;;;;;3.07;2.50;;;;;;;10.13;77.64;101406.16;5077117;28;20021;-93
2023/05/01 05:06:51;;;;;;;5.38;3.30;;;;;;;10.11;78.09;101396.66;5076854;28;20075;-93
2023/05/01 05:09:16;;;;;;;9.17;4.20;;;;;;;10.09;78.21;101395.78;5077308;28;20025;-94
2023/05/01 05:11:42;;;;;;;9.97;4.60;;;;;;;10.08;78.19;101399.25;5076837;28;20031;-93
2023/05/01 05:14:07;;;;;;;6.47;3.87;;;;;;;10.05;77.91;101394.94;5076919;28;20076;-93
2023/05/01 05:16:33;;;;;;;5.60;3.50;;;;;;;10.08;78.23;101399.25;5076593;28;20487;-93
2023/05/01 05:18:58;;;;;;;9.65;4.20;;;;;;;10.06;77.67;101401.88;5076443;28;20044;-93
2023/05/01 05:21:24;;;;;;;8.97;4.60;;;;;;;10.07;78.14;101400.13;5076422;28;20507;-93
2023/05/01 05:23:49;;;;;;;8.43;4.70;;;;;;;10.06;78.13;101394.09;5076419;28;20017;-92
2023/05/01 05:26:15;;;;;;;9.67;5.00;;;;;;;10.07;78.99;101398.41;5076035;28;20036;-92
2023/05/01 05:28:43;;;;;;;10.73;5.20;;;;;;;10.05;79.11;101395.78;5076003;28;20017;-92
2023/05/01 05:31:09;;;;;;;12.50;5.55;;;;;;;10.04;78.42;101398.41;5076267;28;20028;-92
2023/05/01 05:33:34;;;;;;;12.73;5.87;;;;;;;10.03;79.00;101394.09;5075840;28;20471;-85
2023/05/01 05:35:59;;;;;;;10.20;4.80;;;;;;;10.03;78.84;101391.50;5073045;28;20054;-87
2023/05/01 05:38:25;;;;;;;10.20;5.27;;;;;;;10.05;79.00;101397.53;5074617;28;20036;-88
2023/05/01 05:40:53;;;;;;;11.13;5.10;;;;;;;10.08;78.44;101391.47;5075216;28;20131;-87
2023/05/01 05:43:18;;;;;;;11.55;5.80;;;;;;;10.08;78.61;101391.47;5074241;28;20032;-87
2023/05/01 05:45:43;;;;;;;12.53;6.27;;;;;;;10.08;78.60;101396.66;5074600;28;20020;-87
2023/05/01 05:48:08;;;;;;;12.97;5.90;;;;;;;10.05;78.64;101390.63;5074520;28;20111;-87
2023/05/01 05:50:34;;;;;;;10.83;5.60;;;;;;;10.14;78.63;101391.44;5073745;28;20025;-87
2023/05/01 05:52:59;;;;;;;11.97;5.83;;;;;;;10.14;78.50;101389.72;5074622;28;20024;-88
2023/05/01 05:55:24;;;;;;;11.43;5.70;;;;;;;10.22;77.99;101386.22;5073401;28;20046;-89
2023/05/01 05:57:50;;;;;;;11.73;5.60;;;;;;;10.29;78.19;101391.38;5074348;28;20045;-89
2023/05/01 06:00:16;;;;;;;11.70;6.50;;;;;;;10.32;77.65;101387.88;5074185;28;20021;-87
2023/05/01 06:02:41;;;;;;;11.63;5.70;;;;;;;10.42;78.42;101386.16;5074287;28;20444;-83
2023/05/01 06:05:07;;;;;;;11.23;5.57;;;;;;;10.49;78.05;101387.81;5073236;28;20037;-85
2023/05/01 06:07:32;;;;;;;7.07;4.17;;;;;;;10.56;78.28;101381.75;5073658;28;20029;-85
2023/05/01 06:10:03;;;;;;;8.13;4.50;;;;;;;10.64;78.04;101390.31;5073085;28;20538;-86
2023/05/01 06:12:32;;;;;;;10.68;5.57;;;;;;;10.66;77.32;101380.81;5073963;28;20066;-86
2023/05/01 06:14:58;;;;;;;12.15;5.90;;;;;;;10.64;77.04;101390.31;5073993;28;20086;-87
2023/05/01 06:17:24;;;;;;;8.67;5.07;;;;;;;10.69;77.36;101399.81;5073096;28;20024;-86
2023/05/01 06:19:51;;;;;;;7.33;4.50;;;;;;;10.69;77.27;101384.25;5073963;28;20380;-87
2023/05/01 06:22:17;;;;;;;9.98;5.00;;;;;;;10.77;77.78;101391.09;5073653;28;20477;-85
2023/05/01 06:24:42;;;;;;;10.97;5.30;;;;;;;10.82;76.94;101393.66;5073262;28;20107;-89
2023/05/01 06:27:07;;;;;;;11.73;5.97;;;;;;;10.78;77.50;101385.03;5074364;28;20044;-90
2023/05/01 06:29:32;;;;;;;9.10;4.90;;;;;;;10.86;77.77;101387.56;5074728;28;20047;-90
2023/05/01 06:31:58;;;;;;;8.30;4.70;;;;;;;11.00;76.65;101382.25;5074493;28;20108;-90
2023/05/01 06:34:23;;;;;;;8.30;4.80;;;;;;;11.13;76.71;101396.03;5074268;28;20024;-90
2023/05/01 06:36:48;;;;;;;5.63;3.63;;;;;;;11.27;77.25;101386.34;5074687;28;20067;-89
2023/05/01 06:39:13;;;;;;;7.27;4.20;;;;;;;11.42;76.59;101387.06;5074331;28;20032;-88
2023/05/01 06:41:39;;;;;;;7.43;4.30;;;;;;;11.48;76.45;101379.22;5073961;28;20024;-90
2023/05/01 06:44:04;;;;;;;11.37;5.30;;;;;;;11.52;75.00;101377.47;5074277;28;20025;-89
2023/05/01 06:46:29;;;;;;;9.40;5.23;;;;;;;11.84;75.10;101381.44;5072624;28;20051;-89
2023/05/01 06:48:55;;;;;;;11.97;5.80;;;;;;;12.12;73.82;101381.09;5073131;28;20032;-88
2023/05/01 06:51:20;;;;;;;7.93;4.87;;;;;;;12.50;74.71;101380.56;5073916;28;20021;-88
2023/05/01 06:53:45;;;;;;;7.10;4.17;;;;;;;13.01;73.78;101375.44;5073216;28;20064;-88
2023/05/01 06:56:11;;;;;;;8.37;4.83;;;;;;;12.97;71.05;101369.41;5073612;28;20040;-88
2023/05/01 06:58:36;;;;;;;14.03;6.83;;;;;;;12.79;70.65;101376.66;5073532;28;20036;-87
2023/05/01 07:01:01;;;;;;;13.60;6.70;;;;;;;12.58;71.51;101377.00;5072932;28;20027;-88
2023/05/01 07:03:27;;;;;;;10.60;5.60;;;;;;;12.52;72.07;101383.16;5073370;28;20530;-88
2023/05/01 07:05:53;;;;;;;8.83;5.10;;;;;;;12.54;73.10;101376.19;5073531;28;20362;-88
2023/05/01 07:08:19;;;;;;;8.98;4.55;;;;;;;12.58;72.99;101382.22;5072300;28;20364;-88
2023/05/01 07:10:48;;;;;;;7.33;4.30;;;;;;;12.65;73.23;101389.03;5073560;28;20024;-88
2023/05/01 07:13:15;;;;;;;6.57;4.30;;;;;;;12.72;73.06;101385.44;5072758;28;20024;-88
2023/05/01 07:15:40;;;;;;;6.72;4.20;;;;;;;12.80;72.70;101382.72;5073106;28;20020;-88
2023/05/01 07:18:05;;;;;;;14.53;6.77;;;;;;;12.76;71.00;101376.72;5073136;28;20025;-88
2023/05/01 07:20:31;;;;;;;15.37;7.10;;;;;;;12.66;71.88;101372.53;5072248;28;20032;-88
2023/05/01 07:22:59;;;;;;;11.97;6.20;;;;;;;12.73;72.23;101381.13;5072912;28;20040;-88
2023/05/01 07:25:25;;;;;;;8.95;5.18;;;;;;;12.87;72.82;101378.28;5072831;28;20048;-88
2023/05/01 07:27:50;;;;;;;15.27;7.73;;;;;;;12.85;70.12;101382.66;5072292;28;20362;-88
2023/05/01 07:30:15;;;;;;;13.43;7.07;;;;;;;12.73;71.75;101375.91;5073291;28;20020;-88
2023/05/01 07:32:41;;;;;;;9.77;5.77;;;;;;;12.84;71.69;101381.81;5072693;28;20035;-88
2023/05/01 07:35:07;;;;;;;10.57;5.80;;;;;;;13.05;70.86;101384.94;5072070;28;20033;-88
2023/05/01 07:37:35;;;;;;;10.00;5.23;;;;;;;13.16;71.86;101377.78;5072900;28;20070;-88
2023/05/01 07:40:00;;;;;;;8.23;4.63;;;;;;;13.35;71.51;101375.72;5073144;28;20472;-88
2023/05/01 07:42:26;;;;;;;5.63;3.90;;;;;;;13.62;72.23;101377.84;5071928;28;20040;-88
2023/05/01 07:44:52;;;;;;;4.60;3.40;;;;;;;13.81;71.39;101381.81;5072924;28;20025;-88
2023/05/01 07:47:17;;;;;;;4.80;3.37;;;;;;;13.95;69.35;101381.56;5072892;28;20028;-88
2023/05/01 07:49:42;;;;;;;6.20;3.67;;;;;;;14.02;70.28;101383.13;5071837;28;20412;-88
2023/05/01 07:52:08;;;;;;;6.17;4.30;;;;;;;14.08;68.95;101382.16;5072327;28;20437;-88
2023/05/01 07:54:33;;;;;;;4.03;3.13;;;;;;;14.15;69.84;101385.50;5072152;28;20020;-88
2023/05/01 07:57:00;;;;;;;4.33;3.17;;;;;;;14.32;70.04;101385.97;5072184;28;20063;-88
2023/05/01 07:59:26;;;;;;;5.35;3.03;;;;;;;14.44;69.96;101384.84;5073968;28;20046;-87
2023/05/01 08:01:51;;;;;;;3.90;2.90;;;;;;;14.58;69.79;101387.13;5076500;28;20021;-88
2023/05/01 08:04:21;;;;;;;3.40;2.73;;;;;;;14.65;69.52;101382.63;5076412;28;20142;-88
2023/05/01 08:06:46;;;;;;;2.58;2.38;;;;;;;14.84;69.82;101388.31;5076395;28;20583;-88
2023/05/01 08:09:12;;;;;;;4.87;2.90;;;;;;;15.01;68.84;101379.16;5076744;28;20058;-88
2023/05/01 08:11:37;;;;;;;3.63;2.80;;;;;;;15.13;68.56;101389.31;5075157;28;20024;-88
2023/05/01 08:14:02;;;;;;;6.10;3.60;;;;;;;15.28;65.80;101386.31;5076251;28;20031;-88
2023/05/01 08:16:28;;;;;;;7.40;4.63;;;;;;;15.26;66.64;101382.00;5075683;28;20032;-88
2023/05/01 08:19:02;;;;;;;7.27;4.30;;;;;;;15.39;65.18;101377.31;5076514;28;20443;-88
2023/05/01 08:21:28;;;;;;;8.02;4.28;;;;;;;15.57;67.26;101373.34;5076102;28;20040;-88
2023/05/01 08:23:55;;;;;;;7.07;3.87;;;;;;;15.83;67.46;101369.09;5075743;28;20017;-87
2023/05/01 08:26:21;;;;;;;11.50;6.05;;;;;;;15.93;61.92;101370.59;5075711;28;20396;-88
2023/05/01 08:28:46;;;;;;;12.60;6.90;;;;;;;15.79;62.74;101368.34;5076053;28;20016;-88
2023/05/01 08:31:12;;;;;;;13.57;6.35;;;;;;;15.70;64.94;101371.22;5075335;28;20024;-88
2023/05/01 08:33:40;;;;;;;8.50;5.17;;;;;;;15.80;65.80;101370.06;5075389;28;20051;-87
2023/05/01 08:36:07;;;;;;;8.52;5.00;;;;;;;16.01;62.32;101372.97;5076081;28;20032;-88
2023/05/01 08:38:32;;;;;;;8.43;5.18;;;;;;;16.08;64.92;101360.56;5075011;28;20054;-89
2023/05/01 08:41:00;;;;;;;6.60;4.17;;;;;;;16.28;65.38;101371.28;5076091;28;20028;-87
2023/05/01 08:43:26;;;;;;;9.35;4.90;;;;;;;16.39;61.46;101370.09;5075716;28;20028;-87
2023/05/01 08:45:54;;;;;;;10.98;6.03;;;;;;;16.30;59.83;101371.25;5074508;28;20078;-88
2023/05/01 08:48:20;;;;;;;13.25;6.85;;;;;;;16.10;61.12;101369.25;5075130;28;20100;-87
2023/05/01 08:50:46;;;;;;;;;;;;;;;15.97;62.27;101371.38;5075937;28;20024;-88
2023/05/01 08:53:14;;;;;;;8.60;5.07;;;;;;;16.09;63.05;101376.25;5074921;28;19939;-88
2023/05/01 08:55:44;;;;;;;6.70;4.20;;;;;;;16.30;64.20;101373.88;5075276;28;20055;-88
2023/05/01 08:58:12;;;;;;;4.53;3.10;;;;;;;16.53;64.27;101378.38;5075459;28;20020;-88
2023/05/01 09:00:39;;;;;;;4.00;3.05;;;;;;;16.67;63.49;101373.56;5074107;28;20030;-87
2023/05/01 09:03:05;;;;;;;3.00;2.70;;;;;;;16.85;63.19;101388.75;5074871;28;20066;-87
2023/05/01 09:05:32;;;;;;;6.40;4.10;;;;;;;16.84;59.54;101382.63;5074626;28;20074;-87
2023/05/01 09:07:57;;;;;;;11.40;5.70;;;;;;;16.66;60.07;101389.34;5074535;28;20024;-87
2023/05/01 09:10:23;;;;;;;7.90;4.57;;;;;;;16.67;61.99;101384.06;5074305;28;20484;-88
2023/05/01 09:12:56;;;;;;;7.78;4.75;;;;;;;16.70;61.80;101379.63;5074529;28;20021;-89
2023/05/01 09:15:22;;;;;;;5.65;3.60;;;;;;;16.73;60.68;101382.13;5074305;28;20036;-88
2023/05/01 09:17:47;;;;;;;6.47;3.72;;;;;;;16.71;60.96;101381.34;5075269;28;20119;-87
2023/05/01 09:20:13;;;;;;;4.23;3.40;;;;;;;16.69;62.69;101376.13;5074313;28;20170;-88
2023/05/01 09:22:41;;;;;;;3.90;3.00;;;;;;;16.81;61.84;101383.59;5074607;28;20029;-87
2023/05/01 09:25:09;;;;;;;5.03;3.40;;;;;;;16.89;61.86;101379.88;5074771;28;20040;-87
2023/05/01 09:27:36;;;;;;;5.43;3.42;;;;;;;17.01;61.61;101378.63;5073878;28;20464;-87
2023/05/01 09:30:02;;;;;;;3.22;2.80;;;;;;;17.25;62.17;101380.41;5074660;28;20056;-87
2023/05/01 09:32:27;;;;;;;6.23;4.07;;;;;;;17.48;61.08;101377.88;5074712;28;20048;-87
2023/05/01 09:34:54;;;;;;;8.07;4.77;;;;;;;17.47;59.04;101368.28;5073809;28;20024;-87
2023/05/01 09:37:27;;;;;;;;;;;;;;;17.40;57.93;101379.03;5074963;28;20027;-87
2023/05/01 09:40:10;;;;;;;7.70;4.63;;;;;;;17.36;60.55;101373.94;5074761;28;19948;-88
2023/05/01 09:42:38;;;;;;;7.68;4.25;;;;;;;17.48;60.35;101364.75;5073553;28;20020;-87
2023/05/01 09:45:13;;;;;;;9.15;5.32;;;;;;;17.44;55.83;101372.75;5074965;28;20103;-87
2023/05/01 09:47:42;;;;;;;8.60;5.00;;;;;;;17.36;57.12;101364.28;5070339;28;20029;-88
2023/05/01 09:50:09;;;;;;;8.90;4.75;;;;;;;17.42;55.15;101371.09;5068760;28;20301;-88
2023/05/01 09:52:34;;;;;;;10.80;5.13;;;;;;;17.48;57.92;101372.63;5073467;28;20055;-87
2023/05/01 09:55:12;;;;;;;5.40;3.90;;;;;;;17.74;56.85;101376.94;5073605;28;20162;-86
2023/05/01 09:57:39;;;;;;;9.68;5.43;;;;;;;17.93;57.38;101382.34;5073563;28;20086;-86
2023/05/01 10:00:07;;;;;;;7.10;4.50;;;;;;;18.23;57.23;101374.28;5073776;28;20457;-87
2023/05/01 10:02:32;;;;;;;7.32;4.63;;;;;;;18.59;53.71;101376.31;5072458;28;20055;-87
2023/05/01 10:04:58;;;;;;;8.43;4.37;;;;;;;18.79;56.67;101382.56;5074168;28;20109;-87
2023/05/01 10:07:24;;;;;;;7.05;4.30;;;;;;;19.00;54.38;101375.56;5073057;28;20492;-87
2023/05/01 10:09:50;;;;;;;5.30;3.65;;;;;;;19.14;56.12;101374.97;5073230;28;20028;-87
2023/05/01 10:12:27;;;;;;;6.80;3.80;;;;;;;19.29;52.51;101376.94;5073950;28;20376;-87
2023/05/01 10:14:53;;;;;;;;;;;;;;;19.18;52.38;101376.56;5074175;28;20017;-87
2023/05/01 10:17:18;;;;;;;;;;;;;;;19.18;50.54;101391.50;5072842;28;19913;-86
2023/05/01 10:19:44;;;;;;;12.10;6.22;;;;;;;18.99;51.27;101379.09;5072915;28;19912;-87
2023/05/01 10:22:09;;;;;;;8.87;4.70;;;;;;;18.97;52.32;101381.81;5073543;28;20043;-86
2023/05/01 10:24:35;;;;;;;9.63;5.20;;;;;;;19.03;51.00;101385.97;5072730;28;20094;-86
2023/05/01 10:27:04;;;;;;;9.07;5.50;;;;;;;19.01;52.46;101382.53;5073084;28;20053;-86
2023/05/01 10:29:30;;;;;;;7.03;4.20;;;;;;;19.03;53.78;101385.13;5073079;28;20017;-87
2023/05/01 10:31:57;;;;;;;9.65;4.80;;;;;;;19.07;52.24;101381.41;5072815;28;20116;-86
2023/05/01 10:34:24;;;;;;;;;;;;;;;19.23;53.49;101382.47;5073486;28;20033;-85
2023/05/01 10:37:16;;;;;;;4.32;3.30;;;;;;;19.40;53.89;101384.38;5073718;28;19915;-86
2023/05/01 10:39:41;;;;;;;7.90;4.20;;;;;;;19.51;53.50;101378.63;5072628;28;20033;-87
2023/05/01 10:42:13;;;;;;;5.67;3.50;;;;;;;19.50;54.60;101387.44;5073788;28;20034;-87
2023/05/01 10:44:42;;;;;;;7.43;4.45;;;;;;;19.37;50.50;101378.38;5072384;28;20035;-87
2023/05/01 10:47:43;;;;;;;8.75;4.90;;;;;;;19.20;54.19;101387.88;5073347;28;20051;-86
2023/05/01 10:50:14;;;;;;;6.47;3.92;;;;;;;19.30;52.75;101385.72;5071421;28;20032;-86
2023/05/01 10:53:16;;;;;;;6.00;3.42;;;;;;;19.37;53.97;101389.78;5071305;28;20040;-86
2023/05/01 10:55:43;;;;;;;6.82;3.78;;;;;;;19.41;52.88;101393.13;5072617;28;20108;-87
2023/05/01 10:58:10;;;;;;;6.60;3.40;;;;;;;19.44;52.90;101393.00;5073227;28;20407;-86
2023/05/01 11:00:35;;;;;;;;;;;;;;;19.40;53.85;101392.28;5072809;28;20023;-86
2023/05/01 11:03:23;;;;;;;6.75;3.70;;;;;;;19.33;52.64;101393.44;5072867;28;20015;-86
2023/05/01 11:06:04;;;;;;;5.85;3.90;;;;;;;19.36;53.44;101389.84;5072372;28;20040;-86
2023/05/01 11:08:37;;;;;;;6.68;3.50;;;;;;;19.52;54.31;101384.75;5073098;28;20047;-86
2023/05/01 11:11:20;;;;;;;10.18;5.45;;;;;;;19.68;52.63;101387.56;5073096;28;20024;-87
2023/05/01 11:14:02;;;;;;;11.23;5.75;;;;;;;19.36;50.75;101392.47;5072284;28;20034;-86
2023/05/01 11:16:40;;;;;;;15.02;7.05;;;;;;;18.87;50.49;101401.50;5072530;28;20028;-80
2023/05/01 11:19:21;;;;;;;12.02;5.90;;;;;;;18.67;53.34;101394.41;5073057;28;20101;-87
2023/05/01 11:21:47;;;;;;;8.93;4.60;;;;;;;18.82;55.39;101385.91;5072625;28;20126;-86
2023/05/01 11:24:12;;;;;;;12.20;5.70;;;;;;;18.96;52.24;101398.50;5072852;28;20016;-86
2023/05/01 11:26:39;;;;;;;7.13;4.53;;;;;;;19.04;51.41;101399.94;5071326;28;20095;-86
2023/05/01 11:29:06;;;;;;;14.00;6.75;;;;;;;18.92;51.63;101398.69;5072684;28;20044;-86